Jewett, OH (43986)

2:20 PM EDT on October 23, 2014 (GMT -0400)
OHDOT 42-Jefferson County Garage | Change Station
CLOSE
Current Station
Personal Weather Station
Location: Steubenville, OH
Elevation: 1123 ft
Nearby Weather Stations

Elev 1123 ft 40.38 °N, 80.72 °W | Updated 40 minutes ago

Overcast
Overcast
60 °F
Feels Like 60 °F
N
2
Wind Variable Wind from NNW
Gusts 7.0 mph

Today
High -- | Low -- °F
--% Chance of Precip.
Yesterday
High -- | Low -- °F
Precip. -- in
7:43 AM 6:32 PM
Waning Crescent, 0% visible
Pressure 30.13 in
Visibility 10.0 miles
Clouds Mostly Cloudy 3000 ft
Overcast 3600 ft
Dew Point 44 °F
Humidity 54%
Rainfall -999.00 in
Snow Depth Not available.
UV 1 out of 12
Pollen 1.10 out of 12
Air Quality Not available.
Flu Activity Sporadic
METAR KHLG 231753Z 34011KT 10SM BKN030 OVC036 14/06 A3011 RMK AO2 SLP202 T01440061 10144 20067 57017

More Conditions Fewer Conditions

Pressure 30.13 in
Visibility 10.0 miles
Clouds Mostly Cloudy 3000 ft
Overcast 3600 ft
Dew Point 44 °F
Humidity 54%
Rainfall -999.00 in
Snow Depth Not available.
UV 1 out of 12
Pollen 1.10 out of 12
Air Quality Not available.
Flu Activity Sporadic
METAR KHLG 231753Z 34011KT 10SM BKN030 OVC036 14/06 A3011 RMK AO2 SLP202 T01440061 10144 20067 57017

More Conditions Fewer Conditions

10-Day Weather Forecast

Almanac

Astronomy

Oct. 23, 2014 Rise Set
Actual Time 7:43 AM EDT 6:32 PM EDT
Civil Twilight 7:15 AM EDT 7:00 PM EDT
Nautical Twilight 6:43 AM EDT 7:31 PM EDT
Astronomical Twilight 6:12 AM EDT 8:03 PM EDT
Moon 7:21 AM EDT 6:33 PM EDT
Length of Visible Light 11h 44m
Length of Day
10h 48m
Tomorrow will be 2m 28s shorter.
Waning Crescent, 0% of the Moon is Illuminated
Today
Waning Crescent
Oct 23
New
Oct 30
First Quarter
Nov 6
Full
Nov 14
Last Quarter

Today's Extremes

State Highs State Lows

Community

WunderPhotos

Upload Photos

1,764,334 photos uploaded!

WunderBlogs® & News

Nearby

Snow Depth

Station Depth Elevation
No new snow has been reported.

Earthquake Activity

City Distance Mag. Time & Date
No recent earthquake activity has been reported nearby.
Minimum magnitude displayed is 2.5.

Coastal Water Temperatures

Place Temperature
No Stations Reporting

Nearby Weather Stations